sensor_id;sensor_type;location;lat;lon;timestamp;P1;durP1;ratioP1;P2;durP2;ratioP2
42586;SDS011;28216;53.362;-6.288;2023-04-09T00:01:45;6.43;;;2.25;;
42586;SDS011;28216;53.362;-6.288;2023-04-09T00:04:10;4.97;;;2.15;;
42586;SDS011;28216;53.362;-6.288;2023-04-09T00:06:36;8.68;;;2.40;;
42586;SDS011;28216;53.362;-6.288;2023-04-09T00:09:01;5.72;;;2.40;;
42586;SDS011;28216;53.362;-6.288;2023-04-09T00:11:27;4.90;;;2.08;;
42586;SDS011;28216;53.362;-6.288;2023-04-09T00:13:52;5.45;;;1.80;;
42586;SDS011;28216;53.362;-6.288;2023-04-09T00:16:17;4.30;;;2.03;;
42586;SDS011;28216;53.362;-6.288;2023-04-09T00:18:43;6.47;;;2.20;;
42586;SDS011;28216;53.362;-6.288;2023-04-09T00:21:08;6.10;;;2.42;;
42586;SDS011;28216;53.362;-6.288;2023-04-09T00:23:34;7.68;;;2.40;;
42586;SDS011;28216;53.362;-6.288;2023-04-09T00:26:00;4.82;;;2.10;;
42586;SDS011;28216;53.362;-6.288;2023-04-09T00:28:25;11.75;;;2.50;;
42586;SDS011;28216;53.362;-6.288;2023-04-09T00:30:51;5.82;;;2.42;;
42586;SDS011;28216;53.362;-6.288;2023-04-09T00:33:17;6.38;;;1.95;;
42586;SDS011;28216;53.362;-6.288;2023-04-09T00:35:42;6.18;;;3.47;;
42586;SDS011;28216;53.362;-6.288;2023-04-09T00:38:07;4.22;;;2.10;;
42586;SDS011;28216;53.362;-6.288;2023-04-09T00:40:33;7.22;;;2.60;;
42586;SDS011;28216;53.362;-6.288;2023-04-09T00:42:58;4.75;;;2.50;;
42586;SDS011;28216;53.362;-6.288;2023-04-09T00:45:25;7.88;;;2.63;;
42586;SDS011;28216;53.362;-6.288;2023-04-09T00:47:50;10.10;;;2.33;;
42586;SDS011;28216;53.362;-6.288;2023-04-09T00:50:16;6.15;;;2.40;;
42586;SDS011;28216;53.362;-6.288;2023-04-09T00:52:41;7.03;;;2.42;;
42586;SDS011;28216;53.362;-6.288;2023-04-09T00:55:07;5.35;;;2.65;;
42586;SDS011;28216;53.362;-6.288;2023-04-09T00:57:34;7.57;;;2.58;;
42586;SDS011;28216;53.362;-6.288;2023-04-09T00:59:59;5.35;;;3.08;;
42586;SDS011;28216;53.362;-6.288;2023-04-09T01:02:25;9.85;;;3.83;;
42586;SDS011;28216;53.362;-6.288;2023-04-09T01:04:51;9.02;;;4.30;;
42586;SDS011;28216;53.362;-6.288;2023-04-09T01:07:23;5.47;;;2.90;;
42586;SDS011;28216;53.362;-6.288;2023-04-09T01:12:51;6.57;;;3.15;;
42586;SDS011;28216;53.362;-6.288;2023-04-09T01:15:28;10.75;;;3.45;;
42586;SDS011;28216;53.362;-6.288;2023-04-09T01:17:58;6.60;;;3.17;;
42586;SDS011;28216;53.362;-6.288;2023-04-09T01:20:35;10.15;;;3.58;;
42586;SDS011;28216;53.362;-6.288;2023-04-09T01:28:24;9.07;;;3.20;;
42586;SDS011;28216;53.362;-6.288;2023-04-09T01:30:56;8.27;;;3.67;;
42586;SDS011;28216;53.362;-6.288;2023-04-09T01:33:24;5.63;;;3.45;;
42586;SDS011;28216;53.362;-6.288;2023-04-09T01:35:53;10.80;;;3.20;;
42586;SDS011;28216;53.362;-6.288;2023-04-09T01:38:19;10.30;;;3.38;;
42586;SDS011;28216;53.362;-6.288;2023-04-09T01:40:47;7.35;;;3.55;;
42586;SDS011;28216;53.362;-6.288;2023-04-09T01:43:14;9.82;;;4.15;;
42586;SDS011;28216;53.362;-6.288;2023-04-09T01:45:41;8.18;;;3.80;;
42586;SDS011;28216;53.362;-6.288;2023-04-09T01:48:09;10.77;;;4.30;;
42586;SDS011;28216;53.362;-6.288;2023-04-09T01:50:37;11.27;;;4.00;;
42586;SDS011;28216;53.362;-6.288;2023-04-09T01:53:03;12.25;;;4.20;;
42586;SDS011;28216;53.362;-6.288;2023-04-09T01:55:29;6.50;;;3.40;;
42586;SDS011;28216;53.362;-6.288;2023-04-09T01:57:55;10.50;;;3.67;;
42586;SDS011;28216;53.362;-6.288;2023-04-09T02:00:20;7.78;;;3.45;;
42586;SDS011;28216;53.362;-6.288;2023-04-09T02:05:44;10.90;;;3.20;;
42586;SDS011;28216;53.362;-6.288;2023-04-09T02:08:17;8.25;;;3.03;;
42586;SDS011;28216;53.362;-6.288;2023-04-09T02:10:46;13.48;;;3.40;;
42586;SDS011;28216;53.362;-6.288;2023-04-09T02:13:19;9.07;;;3.00;;
42586;SDS011;28216;53.362;-6.288;2023-04-09T02:15:46;8.57;;;3.08;;
42586;SDS011;28216;53.362;-6.288;2023-04-09T02:20:47;7.57;;;2.80;;
42586;SDS011;28216;53.362;-6.288;2023-04-09T02:23:14;7.10;;;2.70;;
42586;SDS011;28216;53.362;-6.288;2023-04-09T02:25:41;10.27;;;2.65;;
42586;SDS011;28216;53.362;-6.288;2023-04-09T02:28:07;8.75;;;2.88;;
42586;SDS011;28216;53.362;-6.288;2023-04-09T02:30:32;11.60;;;2.97;;
42586;SDS011;28216;53.362;-6.288;2023-04-09T02:32:58;8.63;;;2.97;;
42586;SDS011;28216;53.362;-6.288;2023-04-09T02:35:23;13.32;;;3.05;;
42586;SDS011;28216;53.362;-6.288;2023-04-09T02:37:49;11.18;;;3.30;;
42586;SDS011;28216;53.362;-6.288;2023-04-09T02:40:14;9.02;;;2.72;;
42586;SDS011;28216;53.362;-6.288;2023-04-09T02:42:39;10.70;;;2.55;;
42586;SDS011;28216;53.362;-6.288;2023-04-09T02:45:05;9.40;;;2.33;;
42586;SDS011;28216;53.362;-6.288;2023-04-09T02:47:31;11.30;;;3.17;;
42586;SDS011;28216;53.362;-6.288;2023-04-09T02:49:57;11.15;;;2.83;;
42586;SDS011;28216;53.362;-6.288;2023-04-09T02:52:22;9.70;;;2.83;;
42586;SDS011;28216;53.362;-6.288;2023-04-09T02:54:49;8.27;;;2.25;;
42586;SDS011;28216;53.362;-6.288;2023-04-09T02:57:14;6.35;;;2.50;;
42586;SDS011;28216;53.362;-6.288;2023-04-09T02:59:40;7.90;;;2.50;;
42586;SDS011;28216;53.362;-6.288;2023-04-09T03:02:05;10.38;;;2.75;;
42586;SDS011;28216;53.362;-6.288;2023-04-09T03:04:31;7.82;;;2.53;;
42586;SDS011;28216;53.362;-6.288;2023-04-09T03:06:56;8.48;;;2.60;;
42586;SDS011;28216;53.362;-6.288;2023-04-09T03:09:21;5.88;;;1.98;;
42586;SDS011;28216;53.362;-6.288;2023-04-09T03:11:47;7.75;;;2.42;;
42586;SDS011;28216;53.362;-6.288;2023-04-09T03:14:12;10.43;;;3.35;;
42586;SDS011;28216;53.362;-6.288;2023-04-09T03:16:38;9.80;;;2.65;;
42586;SDS011;28216;53.362;-6.288;2023-04-09T03:19:03;6.93;;;2.60;;
42586;SDS011;28216;53.362;-6.288;2023-04-09T03:21:29;6.43;;;2.45;;
42586;SDS011;28216;53.362;-6.288;2023-04-09T03:23:54;9.32;;;2.78;;
42586;SDS011;28216;53.362;-6.288;2023-04-09T03:26:20;9.75;;;2.63;;
42586;SDS011;28216;53.362;-6.288;2023-04-09T03:28:45;10.23;;;2.60;;
42586;SDS011;28216;53.362;-6.288;2023-04-09T03:31:10;9.98;;;2.70;;
42586;SDS011;28216;53.362;-6.288;2023-04-09T03:33:37;9.35;;;2.63;;
42586;SDS011;28216;53.362;-6.288;2023-04-09T03:36:03;8.63;;;2.50;;
42586;SDS011;28216;53.362;-6.288;2023-04-09T03:38:29;9.52;;;2.75;;
42586;SDS011;28216;53.362;-6.288;2023-04-09T03:40:55;9.80;;;2.53;;
42586;SDS011;28216;53.362;-6.288;2023-04-09T03:43:20;10.00;;;2.90;;
42586;SDS011;28216;53.362;-6.288;2023-04-09T03:45:46;3.72;;;2.22;;
42586;SDS011;28216;53.362;-6.288;2023-04-09T03:48:11;8.13;;;2.90;;
42586;SDS011;28216;53.362;-6.288;2023-04-09T03:50:40;12.07;;;3.08;;
42586;SDS011;28216;53.362;-6.288;2023-04-09T03:53:06;10.77;;;3.00;;
42586;SDS011;28216;53.362;-6.288;2023-04-09T03:55:31;11.52;;;3.10;;
42586;SDS011;28216;53.362;-6.288;2023-04-09T03:57:57;11.95;;;3.20;;
42586;SDS011;28216;53.362;-6.288;2023-04-09T04:00:22;9.43;;;3.20;;
42586;SDS011;28216;53.362;-6.288;2023-04-09T04:02:48;10.35;;;3.22;;
42586;SDS011;28216;53.362;-6.288;2023-04-09T04:05:13;9.60;;;3.10;;
42586;SDS011;28216;53.362;-6.288;2023-04-09T04:07:39;10.77;;;3.20;;
42586;SDS011;28216;53.362;-6.288;2023-04-09T04:10:07;10.60;;;3.30;;
42586;SDS011;28216;53.362;-6.288;2023-04-09T04:12:33;13.73;;;4.22;;
42586;SDS011;28216;53.362;-6.288;2023-04-09T04:14:58;9.95;;;3.35;;
42586;SDS011;28216;53.362;-6.288;2023-04-09T04:17:25;12.43;;;3.40;;
42586;SDS011;28216;53.362;-6.288;2023-04-09T04:19:50;14.20;;;3.67;;
42586;SDS011;28216;53.362;-6.288;2023-04-09T04:22:15;12.90;;;3.88;;
42586;SDS011;28216;53.362;-6.288;2023-04-09T04:24:41;11.50;;;3.60;;
42586;SDS011;28216;53.362;-6.288;2023-04-09T04:27:06;14.82;;;3.95;;
42586;SDS011;28216;53.362;-6.288;2023-04-09T04:29:32;10.50;;;3.83;;
42586;SDS011;28216;53.362;-6.288;2023-04-09T04:31:57;14.68;;;4.00;;
42586;SDS011;28216;53.362;-6.288;2023-04-09T04:34:23;13.75;;;4.00;;
42586;SDS011;28216;53.362;-6.288;2023-04-09T04:36:48;11.30;;;4.28;;
42586;SDS011;28216;53.362;-6.288;2023-04-09T04:39:14;12.95;;;4.45;;
42586;SDS011;28216;53.362;-6.288;2023-04-09T04:41:39;9.50;;;4.32;;
42586;SDS011;28216;53.362;-6.288;2023-04-09T04:44:05;12.13;;;4.68;;
42586;SDS011;28216;53.362;-6.288;2023-04-09T04:46:30;15.77;;;4.63;;
42586;SDS011;28216;53.362;-6.288;2023-04-09T04:48:55;12.45;;;4.43;;
42586;SDS011;28216;53.362;-6.288;2023-04-09T04:51:21;15.13;;;5.30;;
42586;SDS011;28216;53.362;-6.288;2023-04-09T04:53:46;14.32;;;4.13;;
42586;SDS011;28216;53.362;-6.288;2023-04-09T04:56:15;14.30;;;4.22;;
42586;SDS011;28216;53.362;-6.288;2023-04-09T04:58:41;13.43;;;5.13;;
42586;SDS011;28216;53.362;-6.288;2023-04-09T05:01:06;10.98;;;4.78;;
42586;SDS011;28216;53.362;-6.288;2023-04-09T05:03:32;13.18;;;4.45;;
42586;SDS011;28216;53.362;-6.288;2023-04-09T05:05:58;15.52;;;4.80;;
42586;SDS011;28216;53.362;-6.288;2023-04-09T05:08:23;14.40;;;4.38;;
42586;SDS011;28216;53.362;-6.288;2023-04-09T05:10:49;16.90;;;4.90;;
42586;SDS011;28216;53.362;-6.288;2023-04-09T05:13:15;16.88;;;4.05;;
42586;SDS011;28216;53.362;-6.288;2023-04-09T05:15:40;14.85;;;4.20;;
42586;SDS011;28216;53.362;-6.288;2023-04-09T05:18:06;13.05;;;3.85;;
42586;SDS011;28216;53.362;-6.288;2023-04-09T05:20:33;17.63;;;4.15;;
42586;SDS011;28216;53.362;-6.288;2023-04-09T05:22:59;11.60;;;3.70;;
42586;SDS011;28216;53.362;-6.288;2023-04-09T05:25:24;13.20;;;3.78;;
42586;SDS011;28216;53.362;-6.288;2023-04-09T05:27:50;13.07;;;4.20;;
42586;SDS011;28216;53.362;-6.288;2023-04-09T05:30:15;15.40;;;4.07;;
42586;SDS011;28216;53.362;-6.288;2023-04-09T05:32:40;13.90;;;4.20;;
42586;SDS011;28216;53.362;-6.288;2023-04-09T05:35:06;12.77;;;3.95;;
42586;SDS011;28216;53.362;-6.288;2023-04-09T05:37:32;10.27;;;3.90;;
42586;SDS011;28216;53.362;-6.288;2023-04-09T05:39:57;14.60;;;4.22;;
42586;SDS011;28216;53.362;-6.288;2023-04-09T05:42:23;12.98;;;3.67;;
42586;SDS011;28216;53.362;-6.288;2023-04-09T05:44:48;12.10;;;4.13;;
42586;SDS011;28216;53.362;-6.288;2023-04-09T05:47:14;10.80;;;3.78;;
42586;SDS011;28216;53.362;-6.288;2023-04-09T05:49:39;8.77;;;4.13;;
42586;SDS011;28216;53.362;-6.288;2023-04-09T05:52:05;14.60;;;4.03;;
42586;SDS011;28216;53.362;-6.288;2023-04-09T05:54:31;14.30;;;4.10;;
42586;SDS011;28216;53.362;-6.288;2023-04-09T05:56:57;13.88;;;4.38;;
42586;SDS011;28216;53.362;-6.288;2023-04-09T05:59:22;16.33;;;3.90;;
42586;SDS011;28216;53.362;-6.288;2023-04-09T06:01:47;13.32;;;3.90;;
42586;SDS011;28216;53.362;-6.288;2023-04-09T06:04:13;12.27;;;3.75;;
42586;SDS011;28216;53.362;-6.288;2023-04-09T06:06:38;11.32;;;3.58;;
42586;SDS011;28216;53.362;-6.288;2023-04-09T06:09:04;15.40;;;4.00;;
42586;SDS011;28216;53.362;-6.288;2023-04-09T06:11:29;16.17;;;3.90;;
42586;SDS011;28216;53.362;-6.288;2023-04-09T06:13:55;14.18;;;4.18;;
42586;SDS011;28216;53.362;-6.288;2023-04-09T06:16:21;14.30;;;4.20;;
42586;SDS011;28216;53.362;-6.288;2023-04-09T06:18:46;11.52;;;4.10;;
42586;SDS011;28216;53.362;-6.288;2023-04-09T06:21:14;12.95;;;3.45;;
42586;SDS011;28216;53.362;-6.288;2023-04-09T06:23:39;13.10;;;4.25;;
42586;SDS011;28216;53.362;-6.288;2023-04-09T06:26:05;12.63;;;3.80;;
42586;SDS011;28216;53.362;-6.288;2023-04-09T06:28:30;19.83;;;4.60;;
42586;SDS011;28216;53.362;-6.288;2023-04-09T06:30:56;16.55;;;3.80;;
42586;SDS011;28216;53.362;-6.288;2023-04-09T06:33:22;17.83;;;4.63;;
42586;SDS011;28216;53.362;-6.288;2023-04-09T06:35:51;15.93;;;4.60;;
42586;SDS011;28216;53.362;-6.288;2023-04-09T06:38:28;12.63;;;4.47;;
42586;SDS011;28216;53.362;-6.288;2023-04-09T06:40:54;13.10;;;4.20;;
42586;SDS011;28216;53.362;-6.288;2023-04-09T06:43:21;11.43;;;4.10;;
42586;SDS011;28216;53.362;-6.288;2023-04-09T06:45:46;14.60;;;4.53;;
42586;SDS011;28216;53.362;-6.288;2023-04-09T06:48:11;12.35;;;4.65;;
42586;SDS011;28216;53.362;-6.288;2023-04-09T06:50:40;12.10;;;4.47;;
42586;SDS011;28216;53.362;-6.288;2023-04-09T06:53:13;11.63;;;4.15;;
42586;SDS011;28216;53.362;-6.288;2023-04-09T06:55:57;12.60;;;4.22;;
42586;SDS011;28216;53.362;-6.288;2023-04-09T06:58:33;12.48;;;4.70;;
42586;SDS011;28216;53.362;-6.288;2023-04-09T07:00:58;12.65;;;4.72;;
42586;SDS011;28216;53.362;-6.288;2023-04-09T07:03:24;11.93;;;4.55;;
42586;SDS011;28216;53.362;-6.288;2023-04-09T07:05:51;13.27;;;4.57;;
42586;SDS011;28216;53.362;-6.288;2023-04-09T07:08:18;12.13;;;4.50;;
42586;SDS011;28216;53.362;-6.288;2023-04-09T07:10:43;19.15;;;4.82;;
42586;SDS011;28216;53.362;-6.288;2023-04-09T07:13:11;14.65;;;5.25;;
42586;SDS011;28216;53.362;-6.288;2023-04-09T07:15:37;16.45;;;4.85;;
42586;SDS011;28216;53.362;-6.288;2023-04-09T07:18:02;13.95;;;4.90;;
42586;SDS011;28216;53.362;-6.288;2023-04-09T07:20:31;14.23;;;4.75;;
42586;SDS011;28216;53.362;-6.288;2023-04-09T07:23:05;17.30;;;4.85;;
42586;SDS011;28216;53.362;-6.288;2023-04-09T07:25:37;12.85;;;4.90;;
42586;SDS011;28216;53.362;-6.288;2023-04-09T07:28:02;10.55;;;4.47;;
42586;SDS011;28216;53.362;-6.288;2023-04-09T07:30:28;14.57;;;4.82;;
42586;SDS011;28216;53.362;-6.288;2023-04-09T07:32:53;14.32;;;5.20;;
42586;SDS011;28216;53.362;-6.288;2023-04-09T07:35:20;11.10;;;4.60;;
42586;SDS011;28216;53.362;-6.288;2023-04-09T07:37:45;15.65;;;4.95;;
42586;SDS011;28216;53.362;-6.288;2023-04-09T07:40:11;16.20;;;5.25;;
42586;SDS011;28216;53.362;-6.288;2023-04-09T07:42:37;15.90;;;5.22;;
42586;SDS011;28216;53.362;-6.288;2023-04-09T07:45:03;14.65;;;4.80;;
42586;SDS011;28216;53.362;-6.288;2023-04-09T07:47:30;12.30;;;4.75;;
42586;SDS011;28216;53.362;-6.288;2023-04-09T07:49:56;16.60;;;5.57;;
42586;SDS011;28216;53.362;-6.288;2023-04-09T07:52:22;11.48;;;4.15;;
42586;SDS011;28216;53.362;-6.288;2023-04-09T07:54:47;11.55;;;4.72;;
42586;SDS011;28216;53.362;-6.288;2023-04-09T07:57:13;12.68;;;4.82;;
42586;SDS011;28216;53.362;-6.288;2023-04-09T07:59:38;14.27;;;4.75;;
42586;SDS011;28216;53.362;-6.288;2023-04-09T08:02:04;11.25;;;4.88;;
42586;SDS011;28216;53.362;-6.288;2023-04-09T08:04:30;15.23;;;5.43;;
42586;SDS011;28216;53.362;-6.288;2023-04-09T08:06:55;12.32;;;4.57;;
42586;SDS011;28216;53.362;-6.288;2023-04-09T08:09:21;8.90;;;4.38;;
42586;SDS011;28216;53.362;-6.288;2023-04-09T08:11:49;12.30;;;4.55;;
42586;SDS011;28216;53.362;-6.288;2023-04-09T08:14:15;14.18;;;4.75;;
42586;SDS011;28216;53.362;-6.288;2023-04-09T08:16:43;14.25;;;4.43;;
42586;SDS011;28216;53.362;-6.288;2023-04-09T08:19:10;15.25;;;4.38;;
42586;SDS011;28216;53.362;-6.288;2023-04-09T08:21:36;12.63;;;4.60;;
42586;SDS011;28216;53.362;-6.288;2023-04-09T08:24:03;12.70;;;4.10;;
42586;SDS011;28216;53.362;-6.288;2023-04-09T08:26:29;16.25;;;4.55;;
42586;SDS011;28216;53.362;-6.288;2023-04-09T08:28:58;14.93;;;4.38;;
42586;SDS011;28216;53.362;-6.288;2023-04-09T08:34:33;12.27;;;3.90;;
42586;SDS011;28216;53.362;-6.288;2023-04-09T08:36:58;11.60;;;4.15;;
42586;SDS011;28216;53.362;-6.288;2023-04-09T08:39:27;15.30;;;4.57;;
42586;SDS011;28216;53.362;-6.288;2023-04-09T08:41:56;10.15;;;3.78;;
42586;SDS011;28216;53.362;-6.288;2023-04-09T08:44:28;17.00;;;4.97;;
42586;SDS011;28216;53.362;-6.288;2023-04-09T08:46:53;12.70;;;4.30;;
42586;SDS011;28216;53.362;-6.288;2023-04-09T08:49:19;11.52;;;4.15;;
42586;SDS011;28216;53.362;-6.288;2023-04-09T08:51:46;10.35;;;4.40;;
42586;SDS011;28216;53.362;-6.288;2023-04-09T08:54:14;11.70;;;4.30;;
42586;SDS011;28216;53.362;-6.288;2023-04-09T08:56:41;10.68;;;4.90;;
42586;SDS011;28216;53.362;-6.288;2023-04-09T08:59:09;11.40;;;4.10;;
42586;SDS011;28216;53.362;-6.288;2023-04-09T09:01:34;12.38;;;4.85;;
42586;SDS011;28216;53.362;-6.288;2023-04-09T09:04:04;11.02;;;4.30;;
42586;SDS011;28216;53.362;-6.288;2023-04-09T09:07:08;14.15;;;5.68;;
42586;SDS011;28216;53.362;-6.288;2023-04-09T09:12:39;11.23;;;4.43;;
42586;SDS011;28216;53.362;-6.288;2023-04-09T09:15:24;10.13;;;4.07;;
42586;SDS011;28216;53.362;-6.288;2023-04-09T09:17:53;10.63;;;4.53;;
42586;SDS011;28216;53.362;-6.288;2023-04-09T09:20:22;10.23;;;4.88;;
42586;SDS011;28216;53.362;-6.288;2023-04-09T09:22:49;8.43;;;4.40;;
42586;SDS011;28216;53.362;-6.288;2023-04-09T09:25:18;14.70;;;5.82;;
42586;SDS011;28216;53.362;-6.288;2023-04-09T09:27:48;12.43;;;5.43;;
42586;SDS011;28216;53.362;-6.288;2023-04-09T09:30:21;9.00;;;5.28;;
42586;SDS011;28216;53.362;-6.288;2023-04-09T09:32:52;9.45;;;5.20;;
42586;SDS011;28216;53.362;-6.288;2023-04-09T09:35:19;12.25;;;5.90;;
42586;SDS011;28216;53.362;-6.288;2023-04-09T09:37:44;10.70;;;5.13;;
42586;SDS011;28216;53.362;-6.288;2023-04-09T09:40:12;14.27;;;5.93;;
42586;SDS011;28216;53.362;-6.288;2023-04-09T09:42:54;10.88;;;4.93;;
42586;SDS011;28216;53.362;-6.288;2023-04-09T09:45:21;11.77;;;5.55;;
42586;SDS011;28216;53.362;-6.288;2023-04-09T09:47:47;12.13;;;5.82;;
42586;SDS011;28216;53.362;-6.288;2023-04-09T09:50:13;9.43;;;5.30;;
42586;SDS011;28216;53.362;-6.288;2023-04-09T09:52:38;13.55;;;5.65;;
42586;SDS011;28216;53.362;-6.288;2023-04-09T09:55:08;8.68;;;5.53;;
42586;SDS011;28216;53.362;-6.288;2023-04-09T09:57:38;13.77;;;5.32;;
42586;SDS011;28216;53.362;-6.288;2023-04-09T10:00:08;12.00;;;6.03;;
42586;SDS011;28216;53.362;-6.288;2023-04-09T10:02:39;13.25;;;5.97;;
42586;SDS011;28216;53.362;-6.288;2023-04-09T10:05:11;13.98;;;7.45;;
42586;SDS011;28216;53.362;-6.288;2023-04-09T10:07:37;16.92;;;5.90;;
42586;SDS011;28216;53.362;-6.288;2023-04-09T10:10:03;16.67;;;6.78;;
42586;SDS011;28216;53.362;-6.288;2023-04-09T10:12:31;13.40;;;7.70;;
42586;SDS011;28216;53.362;-6.288;2023-04-09T10:14:57;16.75;;;7.93;;
42586;SDS011;28216;53.362;-6.288;2023-04-09T10:17:28;14.07;;;6.93;;
42586;SDS011;28216;53.362;-6.288;2023-04-09T10:19:56;15.63;;;7.78;;
42586;SDS011;28216;53.362;-6.288;2023-04-09T10:22:29;15.40;;;7.40;;
42586;SDS011;28216;53.362;-6.288;2023-04-09T10:24:58;15.25;;;7.95;;
42586;SDS011;28216;53.362;-6.288;2023-04-09T10:27:24;19.77;;;8.80;;
42586;SDS011;28216;53.362;-6.288;2023-04-09T10:29:51;22.95;;;9.98;;
42586;SDS011;28216;53.362;-6.288;2023-04-09T10:32:17;17.60;;;7.60;;
42586;SDS011;28216;53.362;-6.288;2023-04-09T10:34:47;18.50;;;7.75;;
42586;SDS011;28216;53.362;-6.288;2023-04-09T10:37:21;24.33;;;9.10;;
42586;SDS011;28216;53.362;-6.288;2023-04-09T10:39:48;22.70;;;9.20;;
42586;SDS011;28216;53.362;-6.288;2023-04-09T10:42:29;16.92;;;7.88;;
42586;SDS011;28216;53.362;-6.288;2023-04-09T10:45:06;19.40;;;8.15;;
42586;SDS011;28216;53.362;-6.288;2023-04-09T10:47:33;18.50;;;7.80;;
42586;SDS011;28216;53.362;-6.288;2023-04-09T10:50:19;22.90;;;11.23;;
42586;SDS011;28216;53.362;-6.288;2023-04-09T10:52:45;22.40;;;9.43;;
42586;SDS011;28216;53.362;-6.288;2023-04-09T10:58:05;17.90;;;7.20;;
42586;SDS011;28216;53.362;-6.288;2023-04-09T11:00:35;16.02;;;7.30;;
42586;SDS011;28216;53.362;-6.288;2023-04-09T11:05:32;19.23;;;8.07;;
42586;SDS011;28216;53.362;-6.288;2023-04-09T11:08:07;21.45;;;8.10;;
42586;SDS011;28216;53.362;-6.288;2023-04-09T11:10:35;20.05;;;8.73;;
42586;SDS011;28216;53.362;-6.288;2023-04-09T11:13:02;19.60;;;7.65;;
42586;SDS011;28216;53.362;-6.288;2023-04-09T11:15:28;21.23;;;8.45;;
42586;SDS011;28216;53.362;-6.288;2023-04-09T11:17:54;20.42;;;8.60;;
42586;SDS011;28216;53.362;-6.288;2023-04-09T11:20:22;21.52;;;8.20;;
42586;SDS011;28216;53.362;-6.288;2023-04-09T11:22:53;19.40;;;8.73;;
42586;SDS011;28216;53.362;-6.288;2023-04-09T11:25:20;18.98;;;7.85;;
42586;SDS011;28216;53.362;-6.288;2023-04-09T11:27:48;20.73;;;7.40;;
42586;SDS011;28216;53.362;-6.288;2023-04-09T11:30:14;20.67;;;7.63;;
42586;SDS011;28216;53.362;-6.288;2023-04-09T11:32:40;17.67;;;7.72;;
42586;SDS011;28216;53.362;-6.288;2023-04-09T11:35:16;19.40;;;7.13;;
42586;SDS011;28216;53.362;-6.288;2023-04-09T11:37:43;19.40;;;8.10;;
42586;SDS011;28216;53.362;-6.288;2023-04-09T11:40:22;19.45;;;8.10;;
42586;SDS011;28216;53.362;-6.288;2023-04-09T11:42:50;19.90;;;8.13;;
42586;SDS011;28216;53.362;-6.288;2023-04-09T11:45:18;15.02;;;7.05;;
42586;SDS011;28216;53.362;-6.288;2023-04-09T11:47:49;14.45;;;5.55;;
42586;SDS011;28216;53.362;-6.288;2023-04-09T11:50:15;17.63;;;6.50;;
42586;SDS011;28216;53.362;-6.288;2023-04-09T11:52:41;12.27;;;5.40;;
42586;SDS011;28216;53.362;-6.288;2023-04-09T11:55:08;17.25;;;7.43;;
42586;SDS011;28216;53.362;-6.288;2023-04-09T11:57:35;29.67;;;10.57;;
42586;SDS011;28216;53.362;-6.288;2023-04-09T12:00:10;27.20;;;10.68;;
42586;SDS011;28216;53.362;-6.288;2023-04-09T12:02:38;28.48;;;10.55;;
42586;SDS011;28216;53.362;-6.288;2023-04-09T12:05:06;18.05;;;6.93;;
42586;SDS011;28216;53.362;-6.288;2023-04-09T12:07:44;20.33;;;7.25;;
42586;SDS011;28216;53.362;-6.288;2023-04-09T12:10:09;35.45;;;12.68;;
42586;SDS011;28216;53.362;-6.288;2023-04-09T12:12:42;29.13;;;9.57;;
42586;SDS011;28216;53.362;-6.288;2023-04-09T12:15:18;18.83;;;6.65;;
42586;SDS011;28216;53.362;-6.288;2023-04-09T12:17:49;16.58;;;6.50;;
42586;SDS011;28216;53.362;-6.288;2023-04-09T12:20:35;20.08;;;5.95;;
42586;SDS011;28216;53.362;-6.288;2023-04-09T12:23:04;13.32;;;5.45;;
42586;SDS011;28216;53.362;-6.288;2023-04-09T12:25:31;14.57;;;5.60;;
42586;SDS011;28216;53.362;-6.288;2023-04-09T12:28:18;12.57;;;4.72;;
42586;SDS011;28216;53.362;-6.288;2023-04-09T12:30:59;14.30;;;5.10;;
42586;SDS011;28216;53.362;-6.288;2023-04-09T12:33:45;12.35;;;4.75;;
42586;SDS011;28216;53.362;-6.288;2023-04-09T12:36:10;16.23;;;5.13;;
42586;SDS011;28216;53.362;-6.288;2023-04-09T12:38:40;14.13;;;5.05;;
42586;SDS011;28216;53.362;-6.288;2023-04-09T12:41:08;14.25;;;5.00;;
42586;SDS011;28216;53.362;-6.288;2023-04-09T12:48:59;14.88;;;5.10;;
42586;SDS011;28216;53.362;-6.288;2023-04-09T12:51:24;16.25;;;5.18;;
42586;SDS011;28216;53.362;-6.288;2023-04-09T12:53:50;14.27;;;5.65;;
42586;SDS011;28216;53.362;-6.288;2023-04-09T12:56:15;16.70;;;5.93;;
42586;SDS011;28216;53.362;-6.288;2023-04-09T12:58:41;18.25;;;5.55;;
42586;SDS011;28216;53.362;-6.288;2023-04-09T13:01:06;18.70;;;4.40;;
42586;SDS011;28216;53.362;-6.288;2023-04-09T13:03:32;14.50;;;5.50;;
42586;SDS011;28216;53.362;-6.288;2023-04-09T13:05:57;12.57;;;4.68;;
42586;SDS011;28216;53.362;-6.288;2023-04-09T13:08:22;11.27;;;4.70;;
42586;SDS011;28216;53.362;-6.288;2023-04-09T13:10:48;17.38;;;5.13;;
42586;SDS011;28216;53.362;-6.288;2023-04-09T13:13:13;18.98;;;5.88;;
42586;SDS011;28216;53.362;-6.288;2023-04-09T13:15:40;12.23;;;5.28;;
42586;SDS011;28216;53.362;-6.288;2023-04-09T13:18:09;14.65;;;6.10;;
42586;SDS011;28216;53.362;-6.288;2023-04-09T13:20:37;13.95;;;4.53;;
42586;SDS011;28216;53.362;-6.288;2023-04-09T13:23:03;12.98;;;4.43;;
42586;SDS011;28216;53.362;-6.288;2023-04-09T13:25:28;14.68;;;4.78;;
42586;SDS011;28216;53.362;-6.288;2023-04-09T13:27:54;19.17;;;5.95;;
42586;SDS011;28216;53.362;-6.288;2023-04-09T13:30:22;19.38;;;5.85;;
42586;SDS011;28216;53.362;-6.288;2023-04-09T13:32:48;15.07;;;4.88;;
42586;SDS011;28216;53.362;-6.288;2023-04-09T13:35:13;13.82;;;4.85;;
42586;SDS011;28216;53.362;-6.288;2023-04-09T13:37:39;13.95;;;5.03;;
42586;SDS011;28216;53.362;-6.288;2023-04-09T13:40:04;14.35;;;5.20;;
42586;SDS011;28216;53.362;-6.288;2023-04-09T13:42:32;12.98;;;5.05;;
42586;SDS011;28216;53.362;-6.288;2023-04-09T13:44:58;14.02;;;5.20;;
42586;SDS011;28216;53.362;-6.288;2023-04-09T13:47:23;12.73;;;4.68;;
42586;SDS011;28216;53.362;-6.288;2023-04-09T13:49:49;16.05;;;5.05;;
42586;SDS011;28216;53.362;-6.288;2023-04-09T13:52:16;14.07;;;4.93;;
42586;SDS011;28216;53.362;-6.288;2023-04-09T13:54:42;13.63;;;5.32;;
42586;SDS011;28216;53.362;-6.288;2023-04-09T13:57:07;15.95;;;5.63;;
42586;SDS011;28216;53.362;-6.288;2023-04-09T13:59:34;12.80;;;5.55;;
42586;SDS011;28216;53.362;-6.288;2023-04-09T14:02:00;17.05;;;5.65;;
42586;SDS011;28216;53.362;-6.288;2023-04-09T14:04:25;10.23;;;4.68;;
42586;SDS011;28216;53.362;-6.288;2023-04-09T14:06:51;15.20;;;5.22;;
42586;SDS011;28216;53.362;-6.288;2023-04-09T14:09:17;16.20;;;6.07;;
42586;SDS011;28216;53.362;-6.288;2023-04-09T14:11:42;12.73;;;5.30;;
42586;SDS011;28216;53.362;-6.288;2023-04-09T14:14:07;14.02;;;5.90;;
42586;SDS011;28216;53.362;-6.288;2023-04-09T14:16:33;14.20;;;6.15;;
42586;SDS011;28216;53.362;-6.288;2023-04-09T14:18:58;13.25;;;6.00;;
42586;SDS011;28216;53.362;-6.288;2023-04-09T14:21:24;15.35;;;6.22;;
42586;SDS011;28216;53.362;-6.288;2023-04-09T14:23:50;15.60;;;6.55;;
42586;SDS011;28216;53.362;-6.288;2023-04-09T14:26:16;15.38;;;7.30;;
42586;SDS011;28216;53.362;-6.288;2023-04-09T14:28:42;19.65;;;6.88;;
42586;SDS011;28216;53.362;-6.288;2023-04-09T14:31:08;21.88;;;7.10;;
42586;SDS011;28216;53.362;-6.288;2023-04-09T14:33:34;15.93;;;5.82;;
42586;SDS011;28216;53.362;-6.288;2023-04-09T14:35:59;13.55;;;5.00;;
42586;SDS011;28216;53.362;-6.288;2023-04-09T14:38:25;14.05;;;4.38;;
42586;SDS011;28216;53.362;-6.288;2023-04-09T14:40:50;13.73;;;3.60;;
42586;SDS011;28216;53.362;-6.288;2023-04-09T14:43:16;13.35;;;4.20;;
42586;SDS011;28216;53.362;-6.288;2023-04-09T14:45:42;12.40;;;3.90;;
42586;SDS011;28216;53.362;-6.288;2023-04-09T14:48:07;9.45;;;3.53;;
42586;SDS011;28216;53.362;-6.288;2023-04-09T14:50:33;6.32;;;2.70;;
42586;SDS011;28216;53.362;-6.288;2023-04-09T14:53:00;9.38;;;3.30;;
42586;SDS011;28216;53.362;-6.288;2023-04-09T14:55:25;9.25;;;4.07;;